createdAt,value
2022-09-13T00:01:35.866Z,58.65
2022-09-13T00:04:03.090Z,58.52
2022-09-13T00:06:30.431Z,58.80
2022-09-13T00:08:58.371Z,59.10
2022-09-13T00:11:27.090Z,59.06
2022-09-13T00:13:55.429Z,58.86
2022-09-13T00:16:25.549Z,58.91
2022-09-13T00:18:54.370Z,58.97
2022-09-13T00:21:23.730Z,59.04
2022-09-13T00:23:52.999Z,59.24
2022-09-13T00:26:23.589Z,58.91
2022-09-13T00:28:52.471Z,59.09
2022-09-13T00:31:20.895Z,59.13
2022-09-13T00:33:47.949Z,58.81
2022-09-13T00:36:15.669Z,58.79
2022-09-13T00:38:43.711Z,59.23
2022-09-13T00:41:16.770Z,59.26
2022-09-13T00:43:49.160Z,58.97
2022-09-13T00:46:38.289Z,59.16
2022-09-13T00:49:32.393Z,58.96
2022-09-13T00:52:03.449Z,59.16
2022-09-13T00:54:36.188Z,59.12
2022-09-13T00:57:05.017Z,58.70
2022-09-13T00:59:41.269Z,59.14
2022-09-13T01:02:09.342Z,59.06
2022-09-13T01:04:39.868Z,59.17
2022-09-13T01:07:10.053Z,59.25
2022-09-13T01:09:40.888Z,59.41
2022-09-13T01:12:32.189Z,59.47
2022-09-13T01:15:01.890Z,59.56
2022-09-13T01:17:30.868Z,59.07
2022-09-13T01:19:58.929Z,59.61
2022-09-13T01:22:44.629Z,59.35
2022-09-13T01:25:31.830Z,59.75
2022-09-13T01:28:04.820Z,59.65
2022-09-13T01:30:57.549Z,59.70
2022-09-13T01:33:47.943Z,59.84
2022-09-13T01:36:31.189Z,59.95
2022-09-13T01:39:07.069Z,59.99
2022-09-13T01:42:00.469Z,59.83
2022-09-13T01:45:09.629Z,60.22
2022-09-13T01:48:03.658Z,60.57
2022-09-13T01:50:44.949Z,60.34
2022-09-13T01:53:14.649Z,60.54
2022-09-13T01:55:49.149Z,60.38
2022-09-13T01:58:24.938Z,60.12
2022-09-13T02:01:03.924Z,60.25
2022-09-13T02:04:06.648Z,60.15
2022-09-13T02:06:55.769Z,60.61
2022-09-13T02:09:26.350Z,60.17
2022-09-13T02:12:09.349Z,60.38
2022-09-13T02:14:43.330Z,59.98
2022-09-13T02:17:25.568Z,60.22
2022-09-13T02:19:59.629Z,60.66
2022-09-13T02:22:33.291Z,60.44
2022-09-13T02:25:05.798Z,60.42
2022-09-13T02:27:35.470Z,60.47
2022-09-13T02:30:07.191Z,60.50
2022-09-13T02:32:37.268Z,60.03
2022-09-13T02:35:04.230Z,59.91
2022-09-13T02:37:34.417Z,60.39
2022-09-13T02:40:09.274Z,60.08
2022-09-13T02:42:44.069Z,59.94
2022-09-13T02:45:14.748Z,60.38
2022-09-13T02:47:59.649Z,60.40
2022-09-13T02:51:03.509Z,60.76
2022-09-13T02:53:56.289Z,61.29
2022-09-13T02:56:37.529Z,62.05
2022-09-13T02:59:20.210Z,61.75
2022-09-13T03:02:19.040Z,61.55
2022-09-13T03:04:46.208Z,61.39
2022-09-13T03:07:15.174Z,61.56
2022-09-13T03:09:48.469Z,61.49
2022-09-13T03:12:44.631Z,61.12
2022-09-13T03:15:21.429Z,61.57
2022-09-13T03:18:13.130Z,61.21
2022-09-13T03:20:46.909Z,61.54
2022-09-13T03:23:36.232Z,61.34
2022-09-13T03:26:21.889Z,61.45
2022-09-13T03:29:01.489Z,61.12
2022-09-13T03:31:49.749Z,61.19
2022-09-13T03:34:33.593Z,60.93
2022-09-13T03:37:15.639Z,61.63
2022-09-13T03:40:11.568Z,61.54
2022-09-13T03:42:52.229Z,61.19
2022-09-13T03:45:24.520Z,61.90
2022-09-13T03:47:52.589Z,61.76
2022-09-13T03:50:25.210Z,61.75
2022-09-13T03:52:59.709Z,62.04
2022-09-13T03:55:27.591Z,61.79
2022-09-13T03:57:54.588Z,61.77
2022-09-13T04:00:21.950Z,61.71
2022-09-13T04:02:49.029Z,61.68
2022-09-13T04:05:16.017Z,61.51
2022-09-13T04:07:43.050Z,61.79
2022-09-13T04:10:13.727Z,61.87
2022-09-13T04:12:41.630Z,61.81
2022-09-13T04:15:09.208Z,61.32
2022-09-13T04:17:36.650Z,61.63
2022-09-13T04:20:05.644Z,61.90
2022-09-13T04:22:33.755Z,61.82
2022-09-13T04:25:02.540Z,62.26
2022-09-13T04:27:29.899Z,61.97
2022-09-13T04:29:56.945Z,62.42
2022-09-13T04:32:23.935Z,61.93
2022-09-13T04:34:50.886Z,62.04
2022-09-13T04:37:17.933Z,61.92
2022-09-13T04:39:44.933Z,62.22
2022-09-13T04:42:12.125Z,62.58
2022-09-13T04:44:39.515Z,62.74
2022-09-13T04:47:06.843Z,62.44
2022-09-13T04:49:34.215Z,62.52
2022-09-13T04:52:01.205Z,62.62
2022-09-13T04:54:28.197Z,62.86
2022-09-13T04:56:55.417Z,62.57
2022-09-13T04:59:22.357Z,62.75
2022-09-13T05:01:49.369Z,62.77
2022-09-13T05:04:16.799Z,62.45
2022-09-13T05:06:43.727Z,62.65
2022-09-13T05:09:13.897Z,62.27
2022-09-13T05:11:41.698Z,62.19
2022-09-13T05:14:12.467Z,62.25
2022-09-13T05:16:39.798Z,61.97
2022-09-13T05:19:06.936Z,61.83
2022-09-13T05:21:34.127Z,61.71
2022-09-13T05:24:01.297Z,61.71
2022-09-13T05:26:33.067Z,61.83
2022-09-13T05:29:00.787Z,61.42
2022-09-13T05:31:33.909Z,61.36
2022-09-13T05:34:06.845Z,61.09
2022-09-13T05:36:34.117Z,61.09
2022-09-13T05:39:28.645Z,61.05
2022-09-13T05:41:48.537Z,60.40
2022-09-13T05:44:15.566Z,60.69
2022-09-13T05:46:43.080Z,60.53
2022-09-13T05:49:12.817Z,60.22
2022-09-13T05:51:40.077Z,60.16
2022-09-13T05:54:07.008Z,59.85
2022-09-13T05:56:33.925Z,59.84
2022-09-13T05:59:00.866Z,59.80
2022-09-13T06:01:29.246Z,59.48
2022-09-13T06:03:59.397Z,59.25
2022-09-13T06:06:26.805Z,59.06
2022-09-13T06:08:55.534Z,58.62
2022-09-13T06:11:23.756Z,58.11
2022-09-13T06:13:50.760Z,58.83
2022-09-13T06:16:17.852Z,58.80
2022-09-13T06:18:45.431Z,58.86
2022-09-13T06:21:22.945Z,58.60
2022-09-13T06:23:54.459Z,58.21
2022-09-13T06:26:23.490Z,58.24
2022-09-13T06:28:51.799Z,58.58
2022-09-13T06:31:21.056Z,58.62
2022-09-13T06:33:48.448Z,58.39
2022-09-13T06:36:20.198Z,58.25
2022-09-13T06:38:51.285Z,58.33
2022-09-13T06:41:23.718Z,58.38
2022-09-13T06:43:59.499Z,57.64
2022-09-13T06:46:28.564Z,57.35
2022-09-13T06:48:55.968Z,57.23
2022-09-13T06:51:24.359Z,57.30
2022-09-13T06:53:52.537Z,56.47
2022-09-13T06:56:22.561Z,56.75
2022-09-13T06:58:52.039Z,56.07
2022-09-13T07:01:22.181Z,56.34
2022-09-13T07:03:51.684Z,56.52
2022-09-13T07:06:29.917Z,55.97
2022-09-13T07:08:59.048Z,55.63
2022-09-13T07:11:29.228Z,55.81
2022-09-13T07:13:58.317Z,55.54
2022-09-13T07:16:28.517Z,55.55
2022-09-13T07:18:57.706Z,55.50
2022-09-13T07:21:25.638Z,55.31
2022-09-13T07:23:54.321Z,54.75
2022-09-13T07:26:22.627Z,54.42
2022-09-13T07:28:52.521Z,54.57
2022-09-13T07:31:21.986Z,53.83
2022-09-13T07:33:55.485Z,53.73
2022-09-13T07:36:22.916Z,53.21
2022-09-13T07:38:50.299Z,52.71
2022-09-13T07:41:20.089Z,52.26
2022-09-13T07:43:47.188Z,52.41
2022-09-13T07:46:41.584Z,52.52
2022-09-13T07:49:08.780Z,52.92
2022-09-13T07:51:37.687Z,52.31
2022-09-13T07:54:06.984Z,51.10
2022-09-13T07:56:36.747Z,51.34
2022-09-13T07:59:06.477Z,50.49
2022-09-13T08:01:38.233Z,50.29
2022-09-13T08:04:07.966Z,49.65
2022-09-13T08:06:36.668Z,49.67
2022-09-13T08:09:04.749Z,49.36
2022-09-13T08:11:34.627Z,48.74
2022-09-13T08:14:01.717Z,49.61
2022-09-13T08:16:30.177Z,49.00
2022-09-13T08:19:01.126Z,48.34
2022-09-13T08:21:36.377Z,48.28
2022-09-13T08:24:05.047Z,47.62
2022-09-13T08:26:33.990Z,47.72
2022-09-13T08:29:02.800Z,47.52
2022-09-13T08:31:31.157Z,47.64
2022-09-13T08:33:58.960Z,46.00
2022-09-13T08:36:27.592Z,46.71
2022-09-13T08:39:00.374Z,46.74
2022-09-13T08:41:42.648Z,46.85
2022-09-13T08:44:28.237Z,47.18
2022-09-13T08:47:30.578Z,46.78
2022-09-13T08:50:11.079Z,46.09
2022-09-13T08:53:09.026Z,46.11
2022-09-13T08:55:57.767Z,46.08
2022-09-13T08:58:30.727Z,46.21
2022-09-13T09:01:13.039Z,46.03
2022-09-13T09:03:49.455Z,45.74
2022-09-13T09:06:17.954Z,45.56
2022-09-13T09:09:08.667Z,44.02
2022-09-13T09:12:16.226Z,43.74
2022-09-13T09:14:48.005Z,43.58
2022-09-13T09:17:28.939Z,43.68
2022-09-13T09:20:21.788Z,43.62
2022-09-13T09:22:50.608Z,43.63
2022-09-13T09:25:17.760Z,43.14
2022-09-13T09:27:44.712Z,41.89
2022-09-13T09:30:15.377Z,41.94
2022-09-13T09:33:00.718Z,40.70
2022-09-13T09:35:56.697Z,40.56
2022-09-13T09:38:37.457Z,40.10
2022-09-13T09:41:14.699Z,39.54
2022-09-13T09:43:56.477Z,38.56
2022-09-13T09:46:29.351Z,39.04
2022-09-13T09:49:05.057Z,38.76
2022-09-13T09:51:33.736Z,38.89
2022-09-13T09:54:05.426Z,38.27
2022-09-13T09:56:34.337Z,38.15
2022-09-13T09:59:02.767Z,37.41
2022-09-13T10:01:31.331Z,36.55
2022-09-13T10:04:10.906Z,36.88
2022-09-13T10:06:42.768Z,36.79
2022-09-13T10:09:10.038Z,37.02
2022-09-13T10:11:58.269Z,35.94
2022-09-13T10:14:36.369Z,35.81
2022-09-13T10:17:05.440Z,35.79
2022-09-13T10:19:33.906Z,35.87
2022-09-13T10:22:06.518Z,36.52
2022-09-13T10:24:33.727Z,35.62
2022-09-13T10:27:00.947Z,35.63
2022-09-13T10:29:29.248Z,35.48
2022-09-13T10:32:01.577Z,35.65
2022-09-13T10:34:36.237Z,34.99
2022-09-13T10:37:18.147Z,34.65
2022-09-13T10:40:09.779Z,34.33
2022-09-13T10:42:37.128Z,34.51
2022-09-13T10:45:07.139Z,34.99
2022-09-13T10:48:32.777Z,34.83
2022-09-13T10:51:13.497Z,34.96
2022-09-13T10:53:42.838Z,34.37
2022-09-13T10:56:25.988Z,34.21
2022-09-13T10:59:29.325Z,33.92
2022-09-13T11:13:48.478Z,32.12
2022-09-13T11:16:28.234Z,32.39
2022-09-13T11:19:04.915Z,32.00
2022-09-13T11:22:03.767Z,31.59
2022-09-13T11:25:03.767Z,31.18
2022-09-13T11:27:52.298Z,30.90
2022-09-13T11:30:25.395Z,31.93
2022-09-13T11:33:16.178Z,30.58
2022-09-13T11:36:15.465Z,31.39
2022-09-13T11:38:48.658Z,31.74
2022-09-13T11:41:52.518Z,30.97
2022-09-13T11:44:54.458Z,31.32
2022-09-13T11:47:45.997Z,32.74
2022-09-13T11:50:21.975Z,32.45
2022-09-13T11:53:01.047Z,32.90
2022-09-13T11:55:32.466Z,31.90
2022-09-13T11:58:04.567Z,32.23
2022-09-13T12:00:40.797Z,32.25
2022-09-13T12:03:10.779Z,32.68
2022-09-13T12:06:22.499Z,32.90
2022-09-13T12:08:53.167Z,33.49
2022-09-13T12:11:28.168Z,34.14
2022-09-13T12:14:01.439Z,34.56
2022-09-13T12:16:43.522Z,34.72
2022-09-13T12:19:51.477Z,35.05
2022-09-13T12:22:20.018Z,34.85
2022-09-13T12:24:52.076Z,35.38
2022-09-13T12:27:40.661Z,34.37
2022-09-13T12:30:18.497Z,34.57
2022-09-13T12:32:46.418Z,34.81
2022-09-13T12:35:22.445Z,35.53
2022-09-13T12:38:04.477Z,36.07
2022-09-13T12:40:39.849Z,35.57
2022-09-13T12:43:19.607Z,35.95
2022-09-13T12:46:05.048Z,36.87
2022-09-13T12:49:04.699Z,36.63
2022-09-13T12:51:56.779Z,37.41
2022-09-13T12:54:48.693Z,36.97
2022-09-13T12:57:50.229Z,36.86
2022-09-13T13:00:27.037Z,37.69
2022-09-13T13:03:17.050Z,36.68
2022-09-13T13:05:53.208Z,36.18
2022-09-13T13:08:20.107Z,36.34
2022-09-13T13:11:03.719Z,36.96
2022-09-13T13:13:44.042Z,36.89
2022-09-13T13:16:30.302Z,36.49
2022-09-13T13:19:02.447Z,36.13
2022-09-13T13:21:39.945Z,37.13
2022-09-13T13:24:15.919Z,37.60
2022-09-13T13:26:42.826Z,37.52
2022-09-13T13:29:23.436Z,37.60
2022-09-13T13:32:07.791Z,38.26
2022-09-13T13:34:44.219Z,38.86
2022-09-13T13:37:11.169Z,38.15
2022-09-13T13:39:42.210Z,39.29
2022-09-13T13:42:35.628Z,39.09
2022-09-13T13:45:02.528Z,38.81
2022-09-13T13:47:29.617Z,38.66
2022-09-13T13:50:08.339Z,39.17
2022-09-13T13:52:52.568Z,38.96
2022-09-13T13:55:45.828Z,38.54
2022-09-13T13:58:27.332Z,38.19
2022-09-13T14:00:56.259Z,37.91
2022-09-13T14:03:37.081Z,38.02
2022-09-13T14:06:28.120Z,37.86
2022-09-13T14:09:33.499Z,37.79
2022-09-13T14:12:20.717Z,37.10
2022-09-13T14:14:50.374Z,35.92
2022-09-13T14:17:55.191Z,34.12
2022-09-13T14:20:22.910Z,32.76
2022-09-13T14:22:49.900Z,32.09
2022-09-13T14:25:25.049Z,30.47
2022-09-13T14:27:59.220Z,29.50
2022-09-13T14:30:35.664Z,28.59
2022-09-13T14:33:05.432Z,28.01
2022-09-13T14:35:38.685Z,27.26
2022-09-13T14:38:18.630Z,27.13
2022-09-13T14:40:50.635Z,25.87
2022-09-13T14:43:23.853Z,25.50
2022-09-13T14:46:01.380Z,24.69
2022-09-13T14:48:31.407Z,23.79
2022-09-13T14:51:04.448Z,24.03
2022-09-13T14:53:34.758Z,24.54
2022-09-13T14:56:16.330Z,25.84
2022-09-13T14:58:56.148Z,26.44
2022-09-13T15:01:30.705Z,27.67
2022-09-13T15:04:00.092Z,29.03
2022-09-13T15:06:32.638Z,29.45
2022-09-13T15:09:11.745Z,30.14
2022-09-13T15:11:52.342Z,31.40
2022-09-13T15:14:31.541Z,32.14
2022-09-13T15:17:07.531Z,32.94
2022-09-13T15:19:48.027Z,33.51
2022-09-13T15:22:28.405Z,34.61
2022-09-13T15:24:57.953Z,34.81
2022-09-13T15:27:26.755Z,35.50
2022-09-13T15:30:00.542Z,36.59
2022-09-13T15:32:33.951Z,36.77
2022-09-13T15:35:02.227Z,37.03
2022-09-13T15:37:37.935Z,37.66
2022-09-13T15:40:17.286Z,37.87
2022-09-13T15:42:52.122Z,38.50
2022-09-13T15:45:20.887Z,39.45
2022-09-13T15:47:50.247Z,38.93
2022-09-13T15:50:27.227Z,38.70
2022-09-13T15:52:55.738Z,39.52
2022-09-13T15:55:23.728Z,40.01
2022-09-13T15:57:50.630Z,39.71
2022-09-13T16:00:27.263Z,40.16
2022-09-13T16:02:54.516Z,40.47
2022-09-13T16:05:21.647Z,40.92
2022-09-13T16:07:48.869Z,40.10
2022-09-13T16:10:22.636Z,40.11
2022-09-13T16:12:49.745Z,40.46
2022-09-13T17:24:53.059Z,52.51
2022-09-13T17:27:20.117Z,53.08
2022-09-13T17:29:47.057Z,53.16
2022-09-13T17:32:14.236Z,53.57
2022-09-13T17:34:41.257Z,53.11
2022-09-13T17:37:08.626Z,53.69
2022-09-13T17:39:35.554Z,52.89
2022-09-13T17:42:02.539Z,52.67
2022-09-13T17:44:29.827Z,52.34
2022-09-13T17:46:56.831Z,51.99
2022-09-13T17:49:23.859Z,51.98
2022-09-13T17:51:51.025Z,51.93
2022-09-13T17:54:17.944Z,52.07
2022-09-13T17:56:45.428Z,52.06
2022-09-13T17:59:18.137Z,51.84
2022-09-13T18:01:50.932Z,51.59
2022-09-13T18:04:20.538Z,51.27
2022-09-13T18:06:47.736Z,51.32
2022-09-13T18:09:16.220Z,50.83
2022-09-13T18:11:43.467Z,50.90
2022-09-13T18:14:15.909Z,50.94
2022-09-13T18:16:43.979Z,50.80
2022-09-13T18:19:11.792Z,50.50
2022-09-13T18:21:39.207Z,50.97
2022-09-13T18:24:09.078Z,50.69
2022-09-13T18:26:36.555Z,50.61
2022-09-13T18:29:07.087Z,50.90
2022-09-13T18:31:37.049Z,50.63
2022-09-13T18:34:10.826Z,50.21
2022-09-13T18:36:38.716Z,50.67
2022-09-13T18:39:07.458Z,50.63
2022-09-13T18:41:42.418Z,50.44
2022-09-13T18:44:13.887Z,50.98
2022-09-13T18:46:42.035Z,50.58
2022-09-13T18:49:09.516Z,50.84
2022-09-13T18:51:42.258Z,50.56
2022-09-13T18:54:12.460Z,50.99
2022-09-13T18:56:39.807Z,50.91
2022-09-13T18:59:07.258Z,51.49
2022-09-13T19:01:37.228Z,52.04
2022-09-13T19:04:11.516Z,52.08
2022-09-13T19:06:42.196Z,51.81
2022-09-13T19:09:10.502Z,51.98
2022-09-13T19:11:46.747Z,51.96
2022-09-13T19:14:16.927Z,52.38
2022-09-13T19:16:44.026Z,52.05
2022-09-13T19:19:11.107Z,52.09
2022-09-13T19:21:38.127Z,51.95
2022-09-13T19:24:10.142Z,52.02
2022-09-13T19:26:40.269Z,51.79
2022-09-13T19:29:10.586Z,52.35
2022-09-13T19:31:43.908Z,51.88
2022-09-13T19:34:11.847Z,51.75
2022-09-13T19:36:39.879Z,51.87
2022-09-13T19:39:16.806Z,51.91
2022-09-13T19:41:43.729Z,51.58
2022-09-13T19:44:13.578Z,51.42
2022-09-13T19:46:44.986Z,51.55
2022-09-13T19:49:14.799Z,51.94
2022-09-13T19:51:47.618Z,51.99
2022-09-13T19:54:20.726Z,52.08
2022-09-13T19:56:47.977Z,52.16
2022-09-13T19:59:17.376Z,52.62
2022-09-13T20:01:45.767Z,52.85
2022-09-13T20:04:21.147Z,53.10
2022-09-13T20:06:50.514Z,53.19
2022-09-13T20:09:19.636Z,53.20
2022-09-13T20:11:48.809Z,52.86
2022-09-13T20:14:18.919Z,52.18
2022-09-13T20:16:46.441Z,52.06
2022-09-13T20:22:09.901Z,52.48
2022-09-13T20:24:37.058Z,53.11
2022-09-13T20:27:04.206Z,53.19
2022-09-13T20:29:32.198Z,53.58
2022-09-13T20:32:00.128Z,53.95
2022-09-13T20:34:27.594Z,53.70
2022-09-13T20:36:54.777Z,53.56
2022-09-13T20:39:21.719Z,53.60
2022-09-13T20:41:50.179Z,53.09
2022-09-13T20:44:17.431Z,52.91
2022-09-13T20:46:44.489Z,53.34
2022-09-13T20:49:12.000Z,53.73
2022-09-13T20:51:39.204Z,54.19
2022-09-13T20:54:07.045Z,54.45
2022-09-13T20:56:34.936Z,54.53
2022-09-13T20:59:02.767Z,54.36
2022-09-13T21:01:31.394Z,54.62
2022-09-13T21:03:59.808Z,54.75
2022-09-13T21:06:27.724Z,54.52
2022-09-13T21:08:56.596Z,54.48
2022-09-13T21:11:33.265Z,54.68
2022-09-13T21:14:03.029Z,54.78
2022-09-13T21:16:33.404Z,55.06
2022-09-13T21:19:01.138Z,54.79
2022-09-13T21:21:31.094Z,54.97
2022-09-13T21:24:00.616Z,55.19
2022-09-13T21:26:28.980Z,54.88
2022-09-13T21:28:58.269Z,55.53
2022-09-13T21:31:27.469Z,55.49
2022-09-13T21:34:01.282Z,55.58
2022-09-13T21:36:29.500Z,55.81
2022-09-13T21:38:56.859Z,55.99
2022-09-13T21:41:25.981Z,56.09
2022-09-13T21:43:53.949Z,55.85
2022-09-13T21:46:26.083Z,56.17
2022-09-13T21:48:56.338Z,55.59
2022-09-13T21:51:29.179Z,55.65
2022-09-13T21:53:59.387Z,55.58
2022-09-13T21:56:28.578Z,56.15
2022-09-13T21:59:00.489Z,55.94
2022-09-13T22:01:30.304Z,56.04
2022-09-13T22:03:58.256Z,56.16
2022-09-13T22:06:28.147Z,56.18
2022-09-13T22:08:59.107Z,56.53
2022-09-13T22:11:32.207Z,56.65
2022-09-13T22:14:00.067Z,56.66
2022-09-13T22:16:32.454Z,56.44
2022-09-13T22:19:08.512Z,56.34
2022-09-13T22:21:39.607Z,56.17
2022-09-13T22:24:08.137Z,56.31
2022-09-13T22:26:38.367Z,56.21
2022-09-13T22:29:05.759Z,56.19
2022-09-13T22:31:35.595Z,56.38
2022-09-13T22:34:03.598Z,56.21
2022-09-13T22:36:30.976Z,56.42
2022-09-13T22:38:58.228Z,56.43
2022-09-13T22:41:31.314Z,57.04
2022-09-13T22:44:00.043Z,57.08
2022-09-13T22:46:42.948Z,56.74
2022-09-13T22:49:18.193Z,56.97
2022-09-13T22:51:46.369Z,57.06
2022-09-13T22:54:14.970Z,57.43
2022-09-13T22:56:42.069Z,57.26
2022-09-13T22:59:14.811Z,56.94
2022-09-13T23:01:42.641Z,56.90
2022-09-13T23:04:09.740Z,57.06
2022-09-13T23:06:37.481Z,57.18
2022-09-13T23:09:07.201Z,56.76
2022-09-13T23:11:37.508Z,57.22
2022-09-13T23:14:11.165Z,57.79
2022-09-13T23:16:40.342Z,57.91
2022-09-13T23:19:07.510Z,58.04
2022-09-13T23:21:37.122Z,58.13
2022-09-13T23:24:06.481Z,57.79
2022-09-13T23:26:34.881Z,58.09
2022-09-13T23:29:03.981Z,57.88
2022-09-13T23:31:36.778Z,57.62
2022-09-13T23:34:06.701Z,57.73
2022-09-13T23:36:39.642Z,57.56
2022-09-13T23:39:10.382Z,58.19
2022-09-13T23:41:37.442Z,58.11
2022-09-13T23:44:04.742Z,58.42
2022-09-13T23:46:32.221Z,58.34
2022-09-13T23:48:59.341Z,58.33
2022-09-13T23:51:27.549Z,57.92
2022-09-13T23:54:01.126Z,57.99
2022-09-13T23:56:30.142Z,57.67
2022-09-13T23:58:58.900Z,57.78
